createdAt,value
2023-04-12T00:00:54.449Z,2.22
2023-04-12T00:03:27.222Z,2.30
2023-04-12T00:06:03.329Z,2.22
2023-04-12T00:08:38.756Z,2.00
2023-04-12T00:11:14.382Z,2.60
2023-04-12T00:13:46.457Z,2.05
2023-04-12T00:16:39.171Z,2.00
2023-04-12T00:19:11.599Z,2.42
2023-04-12T00:21:44.289Z,2.28
2023-04-12T00:24:36.019Z,2.40
2023-04-12T00:27:10.032Z,2.17
2023-04-12T00:29:42.097Z,2.35
2023-04-12T00:32:14.330Z,2.10
2023-04-12T00:34:46.639Z,2.10
2023-04-12T00:37:18.599Z,2.40
2023-04-12T00:39:50.947Z,2.50
2023-04-12T00:42:23.010Z,2.20
2023-04-12T00:44:54.926Z,2.22
2023-04-12T00:47:29.630Z,2.33
2023-04-12T00:50:02.383Z,2.60
2023-04-12T00:52:35.882Z,2.90
2023-04-12T00:55:10.305Z,3.00
2023-04-12T00:58:07.355Z,2.70
2023-04-12T01:00:40.114Z,3.10
2023-04-12T01:03:13.891Z,2.35
2023-04-12T01:06:09.719Z,2.72
2023-04-12T01:09:16.520Z,3.10
2023-04-12T01:12:06.670Z,2.92
2023-04-12T01:15:12.110Z,3.40
2023-04-12T01:17:48.001Z,2.60
2023-04-12T01:20:31.928Z,3.00
2023-04-12T01:23:08.985Z,2.83
2023-04-12T01:25:48.289Z,3.10
2023-04-12T01:28:33.950Z,3.00
2023-04-12T01:31:10.638Z,2.78
2023-04-12T01:33:46.139Z,2.67
2023-04-12T01:36:22.980Z,2.63
2023-04-12T01:38:58.113Z,2.50
2023-04-12T01:41:32.947Z,3.00
2023-04-12T01:44:13.617Z,3.10
2023-04-12T01:46:48.548Z,2.47
2023-04-12T01:49:25.728Z,3.00
2023-04-12T01:52:09.580Z,3.45
2023-04-12T01:54:48.508Z,3.35
2023-04-12T01:57:22.724Z,2.85
2023-04-12T01:59:58.373Z,3.28
2023-04-12T02:02:36.207Z,2.97
2023-04-12T02:05:10.073Z,3.30
2023-04-12T02:07:43.358Z,2.83
2023-04-12T02:10:16.509Z,3.25
2023-04-12T02:13:00.617Z,3.00
2023-04-12T02:15:34.295Z,3.42
2023-04-12T02:18:08.053Z,3.10
2023-04-12T02:20:40.845Z,3.20
2023-04-12T02:23:13.337Z,2.97
2023-04-12T02:25:46.707Z,2.75
2023-04-12T02:28:19.054Z,2.90
2023-04-12T02:31:30.607Z,2.78
2023-04-12T02:34:05.047Z,2.65
2023-04-12T02:36:37.743Z,3.25
2023-04-12T02:39:10.344Z,2.50
2023-04-12T02:41:42.258Z,2.90
2023-04-12T02:44:14.813Z,2.85
2023-04-12T02:46:46.963Z,2.80
2023-04-12T02:49:18.988Z,3.00
2023-04-12T02:51:51.345Z,3.40
2023-04-12T02:54:23.403Z,3.28
2023-04-12T02:56:55.434Z,3.00
2023-04-12T02:59:27.446Z,3.10
2023-04-12T03:02:00.078Z,3.45
2023-04-12T03:04:32.925Z,3.08
2023-04-12T03:07:08.153Z,3.30
2023-04-12T03:09:42.618Z,3.53
2023-04-12T03:12:17.368Z,3.53
2023-04-12T03:14:49.408Z,3.20
2023-04-12T03:17:21.486Z,3.35
2023-04-12T03:19:53.777Z,3.25
2023-04-12T03:22:26.146Z,3.47
2023-04-12T03:24:58.191Z,4.05
2023-04-12T03:27:30.235Z,3.70
2023-04-12T03:30:02.485Z,3.30
2023-04-12T03:32:35.659Z,3.67
2023-04-12T03:35:12.095Z,3.38
2023-04-12T03:37:44.274Z,3.60
2023-04-12T03:40:16.448Z,3.20
2023-04-12T03:42:48.689Z,3.47
2023-04-12T03:45:20.830Z,3.30
2023-04-12T03:47:53.338Z,3.15
2023-04-12T03:50:25.593Z,3.67
2023-04-12T03:53:00.169Z,3.50
2023-04-12T03:55:32.156Z,4.00
2023-04-12T03:58:05.106Z,3.58
2023-04-12T04:00:37.148Z,5.28
2023-04-12T04:03:09.599Z,4.22
2023-04-12T04:05:42.664Z,3.83
2023-04-12T04:08:15.075Z,4.55
2023-04-12T04:10:47.184Z,4.35
2023-04-12T04:13:19.374Z,4.28
2023-04-12T04:15:58.892Z,4.10
2023-04-12T04:18:35.998Z,4.40
2023-04-12T04:21:09.112Z,4.20
2023-04-12T04:23:44.866Z,4.22
2023-04-12T04:26:19.144Z,4.18
2023-04-12T04:28:51.796Z,4.28
2023-04-12T04:31:26.319Z,4.03
2023-04-12T04:33:59.360Z,4.40
2023-04-12T04:36:35.787Z,4.25
2023-04-12T04:39:09.233Z,4.10
2023-04-12T04:41:41.616Z,4.22
2023-04-12T04:44:14.406Z,4.32
2023-04-12T04:46:48.809Z,4.20
2023-04-12T04:49:21.197Z,3.90
2023-04-12T04:51:54.047Z,3.58
2023-04-12T04:54:26.161Z,4.25
2023-04-12T04:56:58.306Z,4.00
2023-04-12T04:59:31.219Z,3.38
2023-04-12T05:02:04.488Z,3.30
2023-04-12T05:04:37.558Z,3.53
2023-04-12T05:07:48.218Z,4.60
2023-04-12T05:10:20.275Z,3.40
2023-04-12T05:12:52.410Z,3.40
2023-04-12T05:15:24.485Z,3.10
2023-04-12T05:17:56.879Z,3.30
2023-04-12T05:20:28.993Z,3.90
2023-04-12T05:23:03.580Z,3.38
2023-04-12T05:25:35.845Z,4.45
2023-04-12T05:28:14.141Z,3.97
2023-04-12T05:30:47.569Z,3.95
2023-04-12T05:33:19.603Z,4.40
2023-04-12T05:35:51.996Z,4.25
2023-04-12T05:38:24.148Z,4.00
2023-04-12T05:40:56.302Z,4.35
2023-04-12T05:43:28.467Z,4.18
2023-04-12T05:46:00.909Z,4.10
2023-04-12T05:48:32.947Z,4.10
2023-04-12T05:51:05.458Z,4.05
2023-04-12T05:53:52.196Z,4.10
2023-04-12T05:56:24.224Z,4.00
2023-04-12T05:59:01.295Z,4.07
2023-04-12T06:01:34.391Z,4.53
2023-04-12T06:04:07.845Z,4.57
2023-04-12T06:06:51.756Z,4.53
2023-04-12T06:09:23.713Z,4.25
2023-04-12T06:11:57.330Z,4.70
2023-04-12T06:14:29.402Z,4.38
2023-04-12T06:17:01.871Z,4.50
2023-04-12T06:19:34.169Z,4.40
2023-04-12T06:22:06.213Z,4.50
2023-04-12T06:24:38.306Z,4.30
2023-04-12T06:27:10.360Z,3.95
2023-04-12T06:29:42.582Z,4.38
2023-04-12T06:32:15.415Z,3.90
2023-04-12T06:34:47.581Z,4.80
2023-04-12T06:37:19.619Z,4.80
2023-04-12T06:39:52.728Z,4.38
2023-04-12T06:42:25.065Z,3.95
2023-04-12T06:44:57.188Z,4.18
2023-04-12T06:47:30.684Z,4.15
2023-04-12T06:50:03.162Z,3.75
2023-04-12T06:52:53.605Z,4.65
2023-04-12T06:55:27.322Z,4.22
2023-04-12T06:58:00.850Z,4.00
2023-04-12T07:01:20.733Z,4.43
2023-04-12T07:03:53.180Z,4.03
2023-04-12T07:06:26.404Z,5.40
2023-04-12T07:08:59.439Z,4.50
2023-04-12T07:11:31.960Z,3.60
2023-04-12T07:14:04.114Z,4.25
2023-04-12T07:16:36.535Z,4.57
2023-04-12T07:19:08.634Z,4.22
2023-04-12T07:21:41.460Z,4.50
2023-04-12T07:24:13.654Z,4.85
2023-04-12T07:26:46.151Z,4.60
2023-04-12T07:29:18.288Z,4.07
2023-04-12T07:31:50.930Z,4.10
2023-04-12T07:34:24.166Z,4.45
2023-04-12T07:36:56.619Z,3.42
2023-04-12T07:39:29.957Z,4.03
2023-04-12T07:42:02.599Z,3.55
2023-04-12T07:44:37.121Z,3.50
2023-04-12T07:47:10.761Z,3.47
2023-04-12T07:49:42.895Z,3.50
2023-04-12T07:52:33.674Z,3.30
2023-04-12T07:55:05.870Z,3.40
2023-04-12T07:57:38.544Z,3.92
2023-04-12T08:00:11.689Z,3.60
2023-04-12T08:02:44.321Z,3.72
2023-04-12T08:05:16.657Z,3.45
2023-04-12T08:07:49.160Z,3.70
2023-04-12T08:10:21.624Z,3.80
2023-04-12T08:12:53.901Z,3.25
2023-04-12T08:15:26.596Z,3.50
2023-04-12T08:17:58.920Z,3.00
2023-04-12T08:20:32.926Z,3.28
2023-04-12T08:23:05.258Z,3.55
2023-04-12T08:25:39.186Z,3.65
2023-04-12T08:28:12.374Z,3.70
2023-04-12T08:30:45.069Z,3.83
2023-04-12T08:33:17.228Z,3.30
2023-04-12T08:35:49.723Z,3.72
2023-04-12T08:38:37.308Z,3.40
2023-04-12T08:41:19.114Z,3.22
2023-04-12T08:43:53.041Z,3.08
2023-04-12T08:46:27.260Z,4.00
2023-04-12T08:49:01.273Z,3.08
2023-04-12T08:51:36.312Z,3.08
2023-04-12T08:54:09.462Z,3.60
2023-04-12T08:56:44.201Z,3.25
2023-04-12T08:59:18.063Z,3.30
2023-04-12T09:01:51.716Z,4.00
2023-04-12T09:04:30.006Z,3.15
2023-04-12T09:07:03.131Z,3.58
2023-04-12T09:09:46.878Z,2.95
2023-04-12T09:12:22.900Z,3.03
2023-04-12T09:15:13.171Z,2.90
2023-04-12T09:18:02.828Z,2.90
2023-04-12T09:20:39.331Z,3.35
2023-04-12T09:23:19.573Z,3.22
2023-04-12T09:25:53.861Z,2.95
2023-04-12T09:28:27.881Z,3.80
2023-04-12T09:31:01.548Z,2.90
2023-04-12T09:33:38.795Z,3.08
2023-04-12T09:36:14.609Z,2.88
2023-04-12T09:39:02.060Z,3.35
2023-04-12T09:41:36.764Z,2.42
2023-04-12T09:44:09.740Z,2.80
2023-04-12T09:47:01.029Z,3.20
2023-04-12T09:49:44.485Z,2.70
2023-04-12T09:52:17.039Z,2.97
2023-04-12T09:54:51.494Z,3.17
2023-04-12T09:57:24.936Z,2.70
2023-04-12T10:00:02.492Z,2.80
2023-04-12T10:02:36.159Z,3.10
2023-04-12T10:05:13.355Z,2.50
2023-04-12T10:07:48.781Z,2.53
2023-04-12T10:10:23.119Z,2.88
2023-04-12T10:12:56.169Z,2.88
2023-04-12T10:15:30.691Z,3.00
2023-04-12T10:18:04.492Z,2.47
2023-04-12T10:20:42.252Z,2.63
2023-04-12T10:23:14.794Z,2.50
2023-04-12T10:26:11.393Z,2.28
2023-04-12T10:28:55.479Z,2.55
2023-04-12T10:31:47.720Z,2.42
2023-04-12T10:34:27.406Z,2.35
2023-04-12T10:37:01.939Z,2.60
2023-04-12T10:39:43.325Z,2.60
2023-04-12T10:42:33.814Z,2.17
2023-04-12T10:45:24.273Z,2.70
2023-04-12T10:48:06.882Z,2.33
2023-04-12T10:50:39.144Z,2.05
2023-04-12T10:53:17.193Z,2.20
2023-04-12T10:55:52.700Z,2.30
2023-04-12T10:58:50.129Z,2.35
2023-04-12T11:01:26.437Z,2.28
2023-04-12T11:04:09.561Z,2.45
2023-04-12T11:06:53.835Z,2.17
2023-04-12T11:09:34.417Z,2.38
2023-04-12T11:12:35.811Z,2.38
2023-04-12T11:15:27.170Z,2.20
2023-04-12T11:18:07.336Z,2.10
2023-04-12T11:20:42.987Z,1.67
2023-04-12T11:23:15.608Z,2.30
2023-04-12T11:25:54.379Z,1.85
2023-04-12T11:28:30.458Z,2.10
2023-04-12T11:31:03.971Z,1.90
2023-04-12T11:34:00.948Z,1.98
2023-04-12T11:36:33.194Z,1.90
2023-04-12T11:39:05.250Z,2.10
2023-04-12T11:41:38.252Z,1.80
2023-04-12T11:44:21.847Z,2.10
2023-04-12T11:46:55.246Z,1.50
2023-04-12T11:49:30.749Z,1.67
2023-04-12T11:52:06.187Z,1.80
2023-04-12T11:54:41.786Z,1.63
2023-04-12T11:57:19.094Z,1.77
2023-04-12T11:59:52.390Z,1.40
2023-04-12T12:02:32.351Z,1.48
2023-04-12T12:05:08.684Z,1.58
2023-04-12T12:07:42.178Z,1.70
2023-04-12T12:10:23.922Z,1.60
2023-04-12T12:13:11.752Z,1.50
2023-04-12T12:15:46.200Z,1.60
2023-04-12T12:18:18.480Z,1.60
2023-04-12T12:20:56.058Z,1.50
2023-04-12T12:23:32.291Z,1.50
2023-04-12T12:26:18.317Z,1.45
2023-04-12T12:28:57.415Z,1.40
2023-04-12T12:31:33.106Z,1.65
2023-04-12T12:34:08.914Z,1.60
2023-04-12T12:36:44.499Z,1.33
2023-04-12T12:39:25.183Z,1.88
2023-04-12T12:41:57.506Z,1.50
2023-04-12T12:44:30.122Z,1.40
2023-04-12T12:47:10.031Z,1.40
2023-04-12T12:49:45.682Z,1.42
2023-04-12T12:52:18.142Z,2.00
2023-04-12T12:54:51.733Z,1.38
2023-04-12T12:57:24.025Z,1.60
2023-04-12T12:59:56.571Z,1.60
2023-04-12T13:02:29.509Z,1.50
2023-04-12T13:05:03.227Z,1.58
2023-04-12T13:07:36.989Z,1.60
2023-04-12T13:10:10.085Z,1.50
2023-04-12T13:12:43.047Z,1.45
2023-04-12T13:17:54.980Z,1.40
2023-04-12T13:20:29.739Z,1.42
2023-04-12T13:23:02.040Z,1.50
2023-04-12T13:25:34.479Z,1.63
2023-04-12T13:28:07.194Z,1.50
2023-04-12T13:30:39.522Z,1.25
2023-04-12T13:33:14.287Z,1.65
2023-04-12T13:35:48.114Z,1.67
2023-04-12T13:38:21.226Z,1.30
2023-04-12T13:40:53.412Z,1.42
2023-04-12T13:43:27.676Z,1.40
2023-04-12T13:45:59.835Z,1.70
2023-04-12T13:48:32.641Z,1.30
2023-04-12T13:51:05.161Z,1.30
2023-04-12T13:53:37.765Z,1.10
2023-04-12T13:56:11.898Z,1.40
2023-04-12T13:58:43.992Z,1.40
2023-04-12T14:01:16.662Z,1.75
2023-04-12T14:03:49.627Z,1.50
2023-04-12T14:06:22.927Z,1.20
2023-04-12T14:08:55.237Z,1.30
2023-04-12T14:11:27.883Z,1.42
2023-04-12T14:14:00.281Z,1.58
2023-04-12T14:16:32.805Z,1.40
2023-04-12T14:19:06.020Z,1.95
2023-04-12T14:21:38.677Z,1.42
2023-04-12T14:24:11.326Z,1.88
2023-04-12T14:26:45.008Z,1.48
2023-04-12T14:29:17.917Z,1.58
2023-04-12T14:31:50.247Z,1.50
2023-04-12T14:34:22.817Z,1.30
2023-04-12T14:36:56.648Z,1.60
2023-04-12T14:39:30.979Z,1.30
2023-04-12T14:42:03.946Z,1.40
2023-04-12T14:44:37.019Z,1.38
2023-04-12T14:47:09.486Z,1.50
2023-04-12T14:49:41.976Z,1.15
2023-04-12T14:52:14.560Z,1.50
2023-04-12T14:54:46.893Z,1.40
2023-04-12T14:57:19.380Z,1.50
2023-04-12T14:59:51.927Z,1.30
2023-04-12T15:02:26.372Z,1.40
2023-04-12T15:04:59.283Z,1.38
2023-04-12T15:07:35.582Z,1.40
2023-04-12T15:10:08.665Z,1.42
2023-04-12T15:12:42.690Z,1.60
2023-04-12T15:15:15.730Z,1.20
2023-04-12T15:17:48.289Z,1.35
2023-04-12T15:20:20.576Z,1.38
2023-04-12T15:22:52.790Z,1.30
2023-04-12T15:25:25.120Z,1.00
2023-04-12T15:27:58.239Z,1.20
2023-04-12T15:30:31.828Z,1.27
2023-04-12T15:33:04.178Z,1.05
2023-04-12T15:35:36.422Z,1.00
2023-04-12T15:38:14.820Z,1.20
2023-04-12T15:40:55.331Z,2.35
2023-04-12T15:43:31.207Z,1.63
2023-04-12T15:46:03.579Z,2.75
2023-04-12T15:48:38.791Z,2.85
2023-04-12T15:51:11.113Z,2.70
2023-04-12T15:53:45.025Z,1.10
2023-04-12T15:56:20.176Z,1.30
2023-04-12T15:58:57.263Z,1.20
2023-04-12T16:01:31.501Z,1.10
2023-04-12T16:04:05.584Z,1.45
2023-04-12T16:06:38.364Z,1.27
2023-04-12T16:09:14.798Z,1.23
2023-04-12T16:11:48.400Z,1.40
2023-04-12T16:14:22.804Z,1.45
2023-04-12T16:16:59.580Z,1.10
2023-04-12T16:19:33.970Z,1.30
2023-04-12T16:22:06.758Z,1.25
2023-04-12T16:24:40.121Z,1.30
2023-04-12T16:27:12.765Z,1.33
2023-04-12T16:29:45.651Z,1.40
2023-04-12T16:32:18.820Z,1.02
2023-04-12T16:34:54.532Z,1.55
2023-04-12T16:37:29.623Z,1.30
2023-04-12T16:40:02.251Z,1.20
2023-04-12T16:42:44.249Z,1.20
2023-04-12T16:45:18.165Z,1.40
2023-04-12T16:47:53.222Z,1.77
2023-04-12T16:50:26.716Z,1.58
2023-04-12T16:53:18.946Z,1.45
2023-04-12T16:55:52.019Z,1.63
2023-04-12T16:58:25.161Z,1.90
2023-04-12T17:00:58.459Z,1.55
2023-04-12T17:03:31.196Z,1.83
2023-04-12T17:06:04.463Z,1.77
2023-04-12T17:08:37.366Z,1.80
2023-04-12T17:11:10.310Z,1.80
2023-04-12T17:13:45.058Z,2.03
2023-04-12T17:16:17.969Z,3.35
2023-04-12T17:18:50.819Z,2.30
2023-04-12T17:21:24.971Z,2.40
2023-04-12T17:23:58.630Z,1.60
2023-04-12T17:26:31.700Z,1.40
2023-04-12T17:29:06.650Z,1.38
2023-04-12T17:31:39.692Z,1.40
2023-04-12T17:34:14.220Z,1.70
2023-04-12T17:37:11.431Z,4.40
2023-04-12T17:39:44.862Z,4.32
2023-04-12T17:42:21.059Z,4.63
2023-04-12T17:44:54.896Z,4.00
2023-04-12T17:47:27.571Z,5.78
2023-04-12T17:50:00.976Z,1.70
2023-04-12T17:52:34.537Z,2.00
2023-04-12T17:55:09.524Z,3.38
2023-04-12T17:57:45.519Z,2.40
2023-04-12T18:00:19.387Z,2.60
2023-04-12T18:02:54.587Z,2.65
2023-04-12T18:05:30.655Z,2.10
2023-04-12T18:08:09.343Z,1.95
2023-04-12T18:10:43.110Z,1.90
2023-04-12T18:13:17.641Z,1.73
2023-04-12T18:15:51.239Z,2.17
2023-04-12T18:18:23.931Z,1.38
2023-04-12T18:20:57.385Z,1.70
2023-04-12T19:44:10.668Z,1.50
2023-04-12T19:46:48.675Z,1.58
2023-04-12T19:49:24.964Z,1.40
2023-04-12T19:51:59.509Z,1.80
2023-04-12T19:54:35.804Z,1.80
2023-04-12T19:57:10.381Z,1.70
2023-04-12T19:59:46.290Z,1.60
2023-04-12T20:02:20.996Z,1.83
2023-04-12T20:04:55.094Z,1.60
2023-04-12T20:07:28.488Z,1.45
2023-04-12T20:10:04.569Z,1.48
2023-04-12T20:12:39.727Z,1.65
2023-04-12T20:15:15.294Z,1.63
2023-04-12T20:17:52.503Z,1.77
2023-04-12T20:20:26.196Z,1.70
2023-04-12T20:23:02.158Z,1.60
2023-04-12T20:25:38.789Z,1.58
2023-04-12T20:28:14.234Z,1.55
2023-04-12T20:30:48.498Z,1.40
2023-04-12T20:33:21.817Z,1.67
2023-04-12T20:35:55.196Z,1.33
2023-04-12T20:38:31.032Z,1.40
2023-04-12T20:41:05.665Z,1.40
2023-04-12T20:43:46.883Z,1.60
2023-04-12T20:46:21.168Z,1.30
2023-04-12T20:48:58.848Z,1.58
2023-04-12T20:51:32.346Z,1.20
2023-04-12T20:54:05.068Z,1.20
2023-04-12T20:56:38.692Z,1.13
2023-04-12T20:59:11.783Z,1.10
2023-04-12T21:01:46.095Z,1.10
2023-04-12T21:04:36.685Z,1.20
2023-04-12T21:07:11.407Z,1.05
2023-04-12T21:09:44.298Z,1.10
2023-04-12T21:12:17.245Z,1.55
2023-04-12T21:14:51.598Z,1.30
2023-04-12T21:17:25.357Z,1.20
2023-04-12T21:19:59.363Z,1.40
2023-04-12T21:22:32.674Z,1.20
2023-04-12T21:25:07.813Z,1.25
2023-04-12T21:27:51.847Z,1.30
2023-04-12T21:30:25.370Z,1.45
2023-04-12T21:32:58.705Z,1.20
2023-04-12T21:35:33.589Z,1.70
2023-04-12T21:38:06.756Z,2.05
2023-04-12T21:40:39.664Z,1.55
2023-04-12T21:43:12.309Z,1.30
2023-04-12T21:45:45.629Z,1.40
2023-04-12T21:48:18.514Z,1.30
2023-04-12T21:50:57.137Z,1.23
2023-04-12T21:53:29.957Z,1.40
2023-04-12T21:56:02.485Z,1.20
2023-04-12T21:58:36.271Z,1.33
2023-04-12T22:01:09.446Z,1.20
2023-04-12T22:03:43.994Z,1.20
2023-04-12T22:06:16.938Z,1.25
2023-04-12T22:08:50.419Z,1.30
2023-04-12T22:11:22.887Z,1.30
2023-04-12T22:13:55.467Z,1.02
2023-04-12T22:16:28.368Z,1.20
2023-04-12T22:19:00.754Z,1.10
2023-04-12T22:21:33.598Z,1.20
2023-04-12T22:24:08.331Z,1.20
2023-04-12T22:26:41.128Z,1.30
2023-04-12T22:29:13.406Z,1.10
2023-04-12T22:31:48.365Z,1.20
2023-04-12T22:34:21.249Z,1.25
2023-04-12T22:36:58.979Z,1.38
2023-04-12T22:39:32.490Z,1.30
2023-04-12T22:42:06.471Z,1.10
2023-04-12T22:44:38.615Z,1.30
2023-04-12T22:47:11.156Z,1.30
2023-04-12T22:49:46.600Z,1.15
2023-04-12T22:52:24.621Z,1.48
2023-04-12T22:54:57.290Z,1.25
2023-04-12T22:57:29.450Z,1.40
2023-04-12T23:00:02.430Z,1.10
2023-04-12T23:02:37.789Z,1.73
2023-04-12T23:05:10.618Z,1.23
2023-04-12T23:07:44.473Z,1.50
2023-04-12T23:10:16.714Z,1.20
2023-04-12T23:12:54.077Z,1.10
2023-04-12T23:15:26.289Z,1.27
2023-04-12T23:18:01.638Z,1.30
2023-04-12T23:20:38.405Z,1.20
2023-04-12T23:23:11.040Z,1.42
2023-04-12T23:25:43.401Z,1.40
2023-04-12T23:28:26.533Z,1.20
2023-04-12T23:31:01.991Z,1.35
2023-04-12T23:33:34.329Z,1.30
2023-04-12T23:36:06.796Z,1.40
2023-04-12T23:38:40.785Z,1.30
2023-04-12T23:41:15.226Z,1.60
2023-04-12T23:43:48.200Z,2.10
2023-04-12T23:46:26.318Z,1.20
2023-04-12T23:48:58.615Z,1.60
2023-04-12T23:51:30.756Z,1.42
2023-04-12T23:54:03.335Z,1.25
2023-04-12T23:56:35.401Z,1.27
2023-04-12T23:59:07.810Z,1.58
